PIMOHWEATHER Station Historical Data
Daily Summary for March 11, 2020 Units:  Metric    English   Both
Daily Weekly Monthly Yearly
  High: Low: Average:
Temperature: 34.0 °C 26.0 °C 29.3 °C
Dew Point: 27.0 °C 23.0 °C 24.8 °C
Humidity: 93% 62% 78%
Wind Speed: 23km/h 0km/h 9km/h
Wind Gust: 28km/h - -
Wind- - SE
Pressure: 1013.6 hPa 1009.8 hPa -
Precipitation: 3.56 mm    
 
 
Tabular Data for March 11, 2020
Time Temperature Dew Point Pressure Wind Wind Speed Wind Gust Humidity Rainfall Rate (Hourly) solar
00:04 26.0 °C 25.0 °C 1011.2 hPa Calm     92% 0.00 mm 0.00 W/m2
00:09 26.0 °C 25.0 °C 1011.5 hPa Calm     92% 0.00 mm 0.00 W/m2
00:14 26.0 °C 25.0 °C 1011.2 hPa SW 3 km/h 4 km/h 92% 0.00 mm 0.00 W/m2
00:19 26.0 °C 25.0 °C 1011.2 hPa SSE 5 km/h 8 km/h 92% 0.00 mm 0.00 W/m2
00:24 26.0 °C 25.0 °C 1011.2 hPa Calm     92% 0.00 mm 0.00 W/m2
00:29 27.0 °C 25.0 °C 1011.2 hPa Calm     91% 0.00 mm 0.00 W/m2
00:34 27.0 °C 25.0 °C 1011.2 hPa South 3 km/h 4 km/h 91% 0.00 mm 0.00 W/m2
00:39 26.0 °C 25.0 °C 1011.2 hPa WNW 3 km/h 4 km/h 90% 0.00 mm 0.00 W/m2
00:44 26.0 °C 25.0 °C 1011.2 hPa WNW 5 km/h 8 km/h 90% 0.00 mm 0.00 W/m2
00:49 27.0 °C 25.0 °C 1010.8 hPa NW 8 km/h 12 km/h 90% 0.00 mm 0.00 W/m2
00:54 27.0 °C 25.0 °C 1010.8 hPa NW 13 km/h 16 km/h 89% 0.00 mm 0.00 W/m2
00:59 27.0 °C 25.0 °C 1011.2 hPa NW 9 km/h 12 km/h 90% 0.00 mm 0.00 W/m2
01:04 27.0 °C 25.0 °C 1010.8 hPa NW 7 km/h 12 km/h 91% 0.00 mm 0.00 W/m2
01:09 27.0 °C 25.0 °C 1010.5 hPa NNW 6 km/h 8 km/h 91% 0.00 mm 0.00 W/m2
01:14 27.0 °C 25.0 °C 1010.5 hPa North 5 km/h 8 km/h 92% 0.00 mm 0.00 W/m2
01:19 27.0 °C 25.0 °C 1010.5 hPa SW 3 km/h 4 km/h 92% 0.00 mm 0.00 W/m2
01:24 27.0 °C 25.0 °C 1010.8 hPa NW 2 km/h 4 km/h 91% 0.00 mm 0.00 W/m2
01:29 27.0 °C 25.0 °C 1010.5 hPa North 3 km/h 4 km/h 91% 0.00 mm 0.00 W/m2
01:34 27.0 °C 25.0 °C 1010.5 hPa NNE 4 km/h 8 km/h 91% 0.00 mm 0.00 W/m2
01:39 27.0 °C 25.0 °C 1010.5 hPa NW 9 km/h 12 km/h 91% 0.00 mm 0.00 W/m2
01:44 27.0 °C 25.0 °C 1010.5 hPa NW 12 km/h 16 km/h 91% 0.00 mm 0.00 W/m2
01:49 26.0 °C 25.0 °C 1010.5 hPa NW 11 km/h 12 km/h 92% 0.00 mm 0.00 W/m2
01:54 26.0 °C 25.0 °C 1010.5 hPa NW 9 km/h 12 km/h 92% 0.00 mm 0.00 W/m2
01:59 26.0 °C 25.0 °C 1010.5 hPa NW 9 km/h 12 km/h 92% 0.00 mm 0.00 W/m2
02:04 26.0 °C 25.0 °C 1010.5 hPa NW 9 km/h 12 km/h 92% 0.00 mm 0.00 W/m2
02:09 26.0 °C 25.0 °C 1010.5 hPa NW 10 km/h 12 km/h 92% 0.00 mm 0.00 W/m2
02:14 26.0 °C 25.0 °C 1010.5 hPa NNW 4 km/h 4 km/h 93% 0.00 mm 0.00 W/m2
02:19 26.0 °C 25.0 °C 1010.5 hPa NNW 8 km/h 12 km/h 93% 0.00 mm 0.00 W/m2
02:24 26.0 °C 25.0 °C 1010.5 hPa NW 8 km/h 12 km/h 93% 0.00 mm 0.00 W/m2
02:29 26.0 °C 25.0 °C 1010.2 hPa NNW 6 km/h 8 km/h 93% 0.00 mm 0.00 W/m2
02:34 26.0 °C 25.0 °C 1010.2 hPa NNW 10 km/h 12 km/h 93% 0.00 mm 0.00 W/m2
02:39 26.0 °C 25.0 °C 1010.2 hPa NW 13 km/h 16 km/h 93% 0.00 mm 0.00 W/m2
02:44 26.0 °C 25.0 °C 1010.2 hPa NNW 10 km/h 12 km/h 93% 0.00 mm 0.00 W/m2
02:49 26.0 °C 25.0 °C 1010.2 hPa North 12 km/h 16 km/h 93% 0.00 mm 0.00 W/m2
02:54 26.0 °C 25.0 °C 1010.2 hPa NNW 10 km/h 16 km/h 92% 0.00 mm 0.00 W/m2
02:59 26.0 °C 25.0 °C 1010.2 hPa NW 10 km/h 12 km/h 92% 0.00 mm 0.00 W/m2
03:04 26.0 °C 25.0 °C 1010.2 hPa NNW 9 km/h 12 km/h 92% 0.00 mm 0.00 W/m2
03:09 27.0 °C 25.0 °C 1010.2 hPa NNW 8 km/h 12 km/h 92% 0.00 mm 0.00 W/m2
03:14 27.0 °C 25.0 °C 1010.2 hPa North 12 km/h 12 km/h 92% 0.00 mm 0.00 W/m2
03:19 27.0 °C 25.0 °C 1010.2 hPa NNW 12 km/h 16 km/h 91% 0.00 mm 0.00 W/m2
03:24 27.0 °C 25.0 °C 1010.2 hPa NW 9 km/h 12 km/h 90% 0.00 mm 0.00 W/m2
03:29 27.0 °C 25.0 °C 1009.8 hPa NW 5 km/h 8 km/h 90% 0.00 mm 0.00 W/m2
03:34 27.0 °C 25.0 °C 1009.8 hPa NW 9 km/h 12 km/h 90% 0.00 mm 0.00 W/m2
03:39 27.0 °C 25.0 °C 1010.2 hPa NW 9 km/h 16 km/h 89% 0.00 mm 0.00 W/m2
03:44 27.0 °C 25.0 °C 1010.2 hPa NW 16 km/h 20 km/h 87% 0.00 mm 0.00 W/m2
03:49 27.0 °C 25.0 °C 1010.2 hPa NW 17 km/h 20 km/h 85% 0.00 mm 0.00 W/m2
03:54 27.0 °C 24.0 °C 1010.2 hPa NNW 18 km/h 20 km/h 85% 0.00 mm 0.00 W/m2
03:59 27.0 °C 24.0 °C 1010.2 hPa NNW 20 km/h 24 km/h 86% 0.00 mm 0.00 W/m2
04:04 27.0 °C 24.0 °C 1010.2 hPa NNW 17 km/h 24 km/h 87% 3.56 mm 0.00 W/m2
04:09 26.0 °C 24.0 °C 1010.2 hPa NW 12 km/h 12 km/h 89% 3.56 mm 0.00 W/m2
04:14 26.0 °C 25.0 °C 1010.2 hPa NW 10 km/h 12 km/h 90% 3.56 mm 0.00 W/m2
04:19 26.0 °C 25.0 °C 1010.2 hPa NNW 7 km/h 8 km/h 91% 0.00 mm 0.00 W/m2
04:24 26.0 °C 25.0 °C 1010.2 hPa NW 9 km/h 12 km/h 91% 0.00 mm 0.00 W/m2
04:29 26.0 °C 25.0 °C 1010.5 hPa NW 5 km/h 8 km/h 91% 0.00 mm 0.00 W/m2
04:34 26.0 °C 25.0 °C 1010.2 hPa NW 7 km/h 8 km/h 92% 0.00 mm 0.00 W/m2
04:39 26.0 °C 25.0 °C 1010.5 hPa NNW 9 km/h 12 km/h 91% 0.00 mm 0.00 W/m2
04:44 27.0 °C 25.0 °C 1010.2 hPa North 10 km/h 12 km/h 90% 0.00 mm 0.00 W/m2
04:49 27.0 °C 25.0 °C 1010.5 hPa North 8 km/h 8 km/h 90% 0.00 mm 0.00 W/m2
04:54 27.0 °C 25.0 °C 1010.5 hPa NNW 6 km/h 8 km/h 90% 0.00 mm 0.00 W/m2
04:59 27.0 °C 25.0 °C 1010.5 hPa North 4 km/h 4 km/h 91% 0.00 mm 0.00 W/m2
05:04 27.0 °C 25.0 °C 1010.5 hPa NNE 5 km/h 8 km/h 91% 0.00 mm 0.00 W/m2
05:09 27.0 °C 25.0 °C 1010.5 hPa NNE 9 km/h 12 km/h 91% 0.00 mm 0.00 W/m2
05:14 27.0 °C 25.0 °C 1010.5 hPa NNW 6 km/h 8 km/h 91% 0.00 mm 0.00 W/m2
05:19 27.0 °C 25.0 °C 1010.8 hPa North 8 km/h 8 km/h 91% 0.00 mm 0.00 W/m2
05:24 27.0 °C 25.0 °C 1010.8 hPa North 6 km/h 8 km/h 91% 0.00 mm 0.00 W/m2
05:29 27.0 °C 25.0 °C 1010.8 hPa NNE 7 km/h 8 km/h 91% 0.00 mm 0.00 W/m2
05:34 27.0 °C 25.0 °C 1010.8 hPa NNE 6 km/h 8 km/h 91% 0.00 mm 0.00 W/m2
05:39 27.0 °C 25.0 °C 1010.8 hPa North 6 km/h 8 km/h 91% 0.00 mm 0.00 W/m2
05:44 27.0 °C 25.0 °C 1010.8 hPa NNE 4 km/h 4 km/h 91% 0.00 mm 0.00 W/m2
05:49 27.0 °C 25.0 °C 1010.8 hPa NNE 3 km/h 4 km/h 91% 0.00 mm 0.00 W/m2
05:54 27.0 °C 25.0 °C 1010.8 hPa North 5 km/h 8 km/h 91% 0.00 mm 0.00 W/m2
05:59 27.0 °C 25.0 °C 1011.2 hPa NNE 5 km/h 8 km/h 91% 0.00 mm 0.00 W/m2
06:04 27.0 °C 25.0 °C 1011.2 hPa NE 4 km/h 4 km/h 91% 0.00 mm 0.00 W/m2
06:09 27.0 °C 25.0 °C 1011.2 hPa North 4 km/h 4 km/h 90% 0.00 mm 0.00 W/m2
06:14 27.0 °C 25.0 °C 1011.2 hPa NNE 5 km/h 8 km/h 90% 0.00 mm 0.47 W/m2
06:19 27.0 °C 25.0 °C 1011.2 hPa NNE 7 km/h 8 km/h 90% 0.00 mm 2.70 W/m2
06:24 27.0 °C 25.0 °C 1011.5 hPa NNE 7 km/h 8 km/h 89% 0.00 mm 5.95 W/m2
06:29 27.0 °C 25.0 °C 1011.5 hPa NNE 7 km/h 8 km/h 89% 0.00 mm 9.30 W/m2
06:34 27.0 °C 25.0 °C 1011.9 hPa NNE 4 km/h 4 km/h 89% 0.00 mm 14.03 W/m2
06:39 27.0 °C 25.0 °C 1011.9 hPa NNE 4 km/h 4 km/h 89% 0.00 mm 19.87 W/m2
06:44 27.0 °C 25.0 °C 1012.2 hPa NNE 6 km/h 8 km/h 89% 0.00 mm 24.08 W/m2
06:49 27.0 °C 25.0 °C 1012.2 hPa North 5 km/h 8 km/h 89% 0.00 mm 27.12 W/m2
06:54 27.0 °C 25.0 °C 1012.2 hPa North 6 km/h 8 km/h 89% 0.00 mm 31.20 W/m2
06:59 27.0 °C 25.0 °C 1012.2 hPa NNE 9 km/h 12 km/h 88% 0.00 mm 32.05 W/m2
07:04 27.0 °C 25.0 °C 1012.2 hPa NNE 8 km/h 8 km/h 88% 0.00 mm 36.52 W/m2
07:09 27.0 °C 25.0 °C 1012.2 hPa North 6 km/h 8 km/h 88% 0.00 mm 47.35 W/m2
07:14 27.0 °C 25.0 °C 1012.5 hPa North 6 km/h 8 km/h 88% 0.00 mm 67.85 W/m2
07:19 28.0 °C 25.0 °C 1012.2 hPa North 4 km/h 4 km/h 88% 0.00 mm 88.42 W/m2
07:24 28.0 °C 25.0 °C 1012.5 hPa NNE 8 km/h 12 km/h 87% 0.00 mm 101.66 W/m2
07:29 28.0 °C 25.0 °C 1012.2 hPa NNE 7 km/h 8 km/h 87% 0.00 mm 113.57 W/m2
07:34 28.0 °C 26.0 °C 1012.5 hPa NNE 9 km/h 12 km/h 87% 0.00 mm 118.44 W/m2
07:39 28.0 °C 26.0 °C 1012.5 hPa NNE 11 km/h 12 km/h 86% 0.00 mm 122.26 W/m2
07:44 28.0 °C 26.0 °C 1012.9 hPa NNE 14 km/h 20 km/h 86% 0.00 mm 143.54 W/m2
07:49 28.0 °C 26.0 °C 1012.9 hPa North 12 km/h 12 km/h 85% 0.00 mm 152.28 W/m2
07:54 29.0 °C 26.0 °C 1012.9 hPa North 14 km/h 16 km/h 86% 0.00 mm 135.98 W/m2
07:59 28.0 °C 26.0 °C 1012.9 hPa NNW 12 km/h 16 km/h 86% 0.00 mm 145.31 W/m2
08:04 29.0 °C 26.0 °C 1012.9 hPa NNW 12 km/h 16 km/h 85% 0.00 mm 137.45 W/m2
08:09 29.0 °C 26.0 °C 1013.2 hPa North 17 km/h 20 km/h 86% 0.00 mm 185.60 W/m2
08:14 28.0 °C 26.0 °C 1013.2 hPa NNE 16 km/h 20 km/h 86% 0.00 mm 222.35 W/m2
08:19 29.0 °C 26.0 °C 1013.2 hPa NNE 19 km/h 20 km/h 85% 0.00 mm 221.57 W/m2
08:24 29.0 °C 26.0 °C 1013.2 hPa NNE 11 km/h 12 km/h 85% 0.00 mm 217.22 W/m2
08:29 29.0 °C 26.0 °C 1013.2 hPa North 14 km/h 20 km/h 84% 0.00 mm 228.79 W/m2
08:34 30.0 °C 26.0 °C 1013.2 hPa North 5 km/h 8 km/h 84% 0.00 mm 249.12 W/m2
08:39 30.0 °C 26.0 °C 1013.2 hPa NNE 6 km/h 8 km/h 81% 0.00 mm 255.97 W/m2
08:44 30.0 °C 26.0 °C 1013.6 hPa NNE 10 km/h 12 km/h 80% 0.00 mm 222.26 W/m2
08:49 30.0 °C 26.0 °C 1013.2 hPa NNE 9 km/h 12 km/h 81% 0.00 mm 197.62 W/m2
08:54 30.0 °C 26.0 °C 1013.2 hPa NNE 5 km/h 8 km/h 81% 0.00 mm 271.39 W/m2
08:59 30.0 °C 26.0 °C 1013.2 hPa North 9 km/h 12 km/h 81% 0.00 mm 254.99 W/m2
09:04 30.0 °C 26.0 °C 1013.2 hPa North 7 km/h 8 km/h 81% 0.00 mm 228.69 W/m2
09:09 30.0 °C 26.0 °C 1013.2 hPa North 8 km/h 8 km/h 81% 0.00 mm 210.29 W/m2
09:14 30.0 °C 26.0 °C 1013.2 hPa NW 7 km/h 8 km/h 81% 0.00 mm 222.79 W/m2
09:19 30.0 °C 26.0 °C 1012.9 hPa NNW 12 km/h 16 km/h 81% 0.00 mm 308.75 W/m2
09:24 30.0 °C 26.0 °C 1013.2 hPa NNE 9 km/h 12 km/h 81% 0.00 mm 283.82 W/m2
09:29 31.0 °C 26.0 °C 1013.2 hPa ESE 7 km/h 8 km/h 78% 0.00 mm 322.01 W/m2
09:34 32.0 °C 26.0 °C 1013.2 hPa ESE 4 km/h 8 km/h 76% 0.00 mm 308.72 W/m2
09:39 32.0 °C 27.0 °C 1013.2 hPa North 4 km/h 8 km/h 75% 0.00 mm 322.45 W/m2
09:44 32.0 °C 27.0 °C 1013.2 hPa North 5 km/h 8 km/h 74% 0.00 mm 366.00 W/m2
09:49 32.0 °C 26.0 °C 1013.2 hPa North 10 km/h 12 km/h 74% 0.00 mm 408.84 W/m2
09:54 32.0 °C 26.0 °C 1013.2 hPa SSE 9 km/h 12 km/h 74% 0.00 mm 364.24 W/m2
09:59 32.0 °C 26.0 °C 1013.6 hPa ESE 9 km/h 12 km/h 71% 0.00 mm 292.50 W/m2
10:04 32.0 °C 25.0 °C 1013.2 hPa NNE 16 km/h 16 km/h 69% 0.00 mm 274.00 W/m2
10:09 33.0 °C 26.0 °C 1013.6 hPa SSE 6 km/h 8 km/h 68% 0.00 mm 447.65 W/m2
10:14 33.0 °C 26.0 °C 1013.2 hPa ENE 4 km/h 8 km/h 65% 0.00 mm 475.76 W/m2
10:19 34.0 °C 26.0 °C 1013.2 hPa ESE 6 km/h 8 km/h 63% 0.00 mm 521.86 W/m2
10:24 34.0 °C 26.0 °C 1013.2 hPa NE 5 km/h 8 km/h 63% 0.00 mm 480.75 W/m2
10:29 33.0 °C 27.0 °C 1012.9 hPa WSW 6 km/h 8 km/h 69% 0.00 mm 400.74 W/m2
10:34 33.0 °C 27.0 °C 1013.2 hPa SSE 15 km/h 16 km/h 75% 0.00 mm 446.18 W/m2
10:39 32.0 °C 27.0 °C 1012.9 hPa SSW 11 km/h 12 km/h 75% 0.00 mm 444.66 W/m2
10:44 33.0 °C 27.0 °C 1013.2 hPa NW 10 km/h 12 km/h 74% 0.00 mm 371.80 W/m2
10:49 33.0 °C 27.0 °C 1012.9 hPa SSW 8 km/h 12 km/h 74% 0.00 mm 310.34 W/m2
10:54 32.0 °C 27.0 °C 1012.9 hPa SSW 6 km/h 8 km/h 74% 0.00 mm 158.74 W/m2
10:59 32.0 °C 27.0 °C 1012.9 hPa South 5 km/h 8 km/h 75% 0.00 mm 112.57 W/m2
11:04 32.0 °C 27.0 °C 1012.9 hPa South 10 km/h 12 km/h 78% 0.00 mm 174.59 W/m2
11:09 31.0 °C 27.0 °C 1012.9 hPa SSW 6 km/h 12 km/h 79% 0.00 mm 118.66 W/m2
11:14 31.0 °C 27.0 °C 1012.9 hPa SSW 7 km/h 8 km/h 80% 0.00 mm 90.33 W/m2
11:19 31.0 °C 27.0 °C 1012.5 hPa SSW 6 km/h 8 km/h 80% 0.00 mm 87.15 W/m2
11:24 31.0 °C 27.0 °C 1012.5 hPa SSW 12 km/h 16 km/h 81% 0.00 mm 82.57 W/m2
11:29 30.0 °C 27.0 °C 1012.5 hPa South 9 km/h 12 km/h 82% 0.00 mm 75.18 W/m2
11:34 30.0 °C 27.0 °C 1012.5 hPa SSW 6 km/h 8 km/h 82% 0.00 mm 119.40 W/m2
11:39 31.0 °C 27.0 °C 1012.5 hPa SW 3 km/h 4 km/h 82% 0.00 mm 274.84 W/m2
11:44 31.0 °C 27.0 °C 1012.5 hPa South 8 km/h 8 km/h 80% 0.00 mm 217.34 W/m2
11:49 31.0 °C 27.0 °C 1012.2 hPa South 9 km/h 12 km/h 79% 0.00 mm 179.36 W/m2
11:54 31.0 °C 27.0 °C 1012.2 hPa SSW 10 km/h 12 km/h 78% 0.00 mm 89.28 W/m2
11:59 31.0 °C 27.0 °C 1012.2 hPa SSE 4 km/h 4 km/h 79% 0.00 mm 60.03 W/m2
12:04 31.0 °C 27.0 °C 1012.2 hPa SW 3 km/h 4 km/h 80% 0.00 mm 54.39 W/m2
12:09 30.0 °C 26.0 °C 1012.2 hPa South 5 km/h 8 km/h 79% 0.00 mm 50.74 W/m2
12:14 30.0 °C 26.0 °C 1012.2 hPa SE 10 km/h 12 km/h 81% 5.33 mm 52.41 W/m2
12:19 29.0 °C 26.0 °C 1011.9 hPa SE 12 km/h 16 km/h 83% 12.70 mm 66.57 W/m2
12:24 29.0 °C 26.0 °C 1011.9 hPa SSE 12 km/h 16 km/h 86% 12.70 mm 101.56 W/m2
12:29 28.0 °C 26.0 °C 1011.9 hPa SSE 11 km/h 12 km/h 88% 10.67 mm 126.49 W/m2
12:34 28.0 °C 26.0 °C 1011.9 hPa SSE 7 km/h 12 km/h 89% 5.33 mm 160.18 W/m2
12:39 28.0 °C 26.0 °C 1011.5 hPa SSE 9 km/h 12 km/h 89% 1.78 mm 160.82 W/m2
12:44 29.0 °C 26.0 °C 1011.9 hPa SSE 6 km/h 8 km/h 87% 0.00 mm 192.97 W/m2
12:49 29.0 °C 26.0 °C 1011.5 hPa SSE 9 km/h 12 km/h 86% 0.00 mm 204.44 W/m2
12:54 30.0 °C 26.0 °C 1011.5 hPa South 10 km/h 12 km/h 85% 0.00 mm 487.75 W/m2
12:59 30.0 °C 27.0 °C 1011.2 hPa South 13 km/h 16 km/h 83% 0.00 mm 492.72 W/m2
13:04 31.0 °C 27.0 °C 1011.2 hPa South 12 km/h 12 km/h 80% 0.00 mm 537.64 W/m2
13:09 31.0 °C 27.0 °C 1011.2 hPa SSE 13 km/h 16 km/h 78% 0.00 mm 518.95 W/m2
13:14 31.0 °C 26.0 °C 1011.2 hPa SSE 9 km/h 12 km/h 76% 0.00 mm 207.01 W/m2
13:19 31.0 °C 26.0 °C 1011.2 hPa SSE 6 km/h 8 km/h 76% 0.00 mm 324.80 W/m2
13:24 32.0 °C 27.0 °C 1011.2 hPa SSE 6 km/h 12 km/h 76% 0.00 mm 562.77 W/m2
13:29 33.0 °C 26.0 °C 1010.8 hPa NE 12 km/h 16 km/h 70% 0.00 mm 507.18 W/m2
13:34 33.0 °C 25.0 °C 1010.8 hPa NNE 19 km/h 24 km/h 65% 0.00 mm 285.94 W/m2
13:39 32.0 °C 25.0 °C 1010.8 hPa NNE 16 km/h 20 km/h 67% 0.00 mm 211.20 W/m2
13:44 32.0 °C 25.0 °C 1010.8 hPa North 13 km/h 16 km/h 68% 0.00 mm 168.45 W/m2
13:49 32.0 °C 25.0 °C 1010.8 hPa NNE 8 km/h 12 km/h 69% 0.00 mm 144.94 W/m2
13:54 32.0 °C 25.0 °C 1010.8 hPa NNE 19 km/h 24 km/h 68% 0.00 mm 145.55 W/m2
13:59 31.0 °C 25.0 °C 1010.5 hPa NNE 17 km/h 20 km/h 69% 0.00 mm 149.05 W/m2
14:04 32.0 °C 25.0 °C 1010.5 hPa NNE 21 km/h 24 km/h 69% 0.00 mm 167.79 W/m2
14:09 32.0 °C 25.0 °C 1010.5 hPa NE 13 km/h 16 km/h 67% 0.00 mm 183.45 W/m2
14:14 32.0 °C 25.0 °C 1010.5 hPa NE 8 km/h 12 km/h 67% 0.00 mm 214.25 W/m2
14:19 32.0 °C 25.0 °C 1010.2 hPa ENE 8 km/h 12 km/h 67% 0.00 mm 259.20 W/m2
14:24 33.0 °C 25.0 °C 1010.5 hPa NNE 12 km/h 20 km/h 66% 0.00 mm 215.11 W/m2
14:29 32.0 °C 25.0 °C 1010.2 hPa NE 8 km/h 12 km/h 67% 0.00 mm 234.66 W/m2
14:34 33.0 °C 25.0 °C 1010.2 hPa SE 5 km/h 8 km/h 67% 0.00 mm 259.59 W/m2
14:39 33.0 °C 25.0 °C 1010.2 hPa NE 17 km/h 20 km/h 66% 0.00 mm 198.55 W/m2
14:44 32.0 °C 25.0 °C 1010.2 hPa NNE 9 km/h 12 km/h 67% 0.00 mm 196.98 W/m2
14:49 32.0 °C 25.0 °C 1010.2 hPa ESE 10 km/h 12 km/h 67% 0.00 mm 218.19 W/m2
14:54 32.0 °C 25.0 °C 1010.2 hPa NNE 16 km/h 24 km/h 67% 0.00 mm 231.82 W/m2
14:59 32.0 °C 25.0 °C 1010.5 hPa NNE 15 km/h 20 km/h 67% 0.00 mm 345.67 W/m2
15:04 33.0 °C 25.0 °C 1010.2 hPa ENE 10 km/h 12 km/h 67% 0.00 mm 359.91 W/m2
15:09 33.0 °C 25.0 °C 1010.2 hPa NNE 15 km/h 20 km/h 66% 0.00 mm 490.83 W/m2
15:14 33.0 °C 26.0 °C 1010.2 hPa NE 11 km/h 16 km/h 65% 0.00 mm 489.34 W/m2
15:19 33.0 °C 25.0 °C 1010.2 hPa ENE 20 km/h 24 km/h 65% 0.00 mm 478.33 W/m2
15:24 34.0 °C 26.0 °C 1010.2 hPa WSW 8 km/h 16 km/h 64% 0.00 mm 480.48 W/m2
15:29 34.0 °C 25.0 °C 1009.8 hPa NE 13 km/h 16 km/h 64% 0.00 mm 451.54 W/m2
15:34 33.0 °C 26.0 °C 1009.8 hPa NE 19 km/h 24 km/h 65% 0.00 mm 157.03 W/m2
15:39 32.0 °C 25.0 °C 1010.2 hPa WSW 9 km/h 12 km/h 65% 0.00 mm 131.36 W/m2
15:44 32.0 °C 25.0 °C 1009.8 hPa ESE 10 km/h 16 km/h 65% 0.00 mm 279.02 W/m2
15:49 33.0 °C 25.0 °C 1009.8 hPa NNE 10 km/h 12 km/h 65% 0.00 mm 227.88 W/m2
15:54 32.0 °C 25.0 °C 1010.2 hPa NE 12 km/h 16 km/h 65% 0.00 mm 269.43 W/m2
15:59 32.0 °C 25.0 °C 1009.8 hPa NNE 12 km/h 16 km/h 65% 0.00 mm 234.42 W/m2
16:04 32.0 °C 25.0 °C 1009.8 hPa NNE 16 km/h 20 km/h 64% 0.00 mm 136.99 W/m2
16:09 32.0 °C 24.0 °C 1009.8 hPa NNE 15 km/h 16 km/h 64% 0.00 mm 195.00 W/m2
16:14 32.0 °C 24.0 °C 1010.2 hPa NNE 13 km/h 16 km/h 64% 0.00 mm 200.55 W/m2
16:19 33.0 °C 25.0 °C 1009.8 hPa NE 13 km/h 16 km/h 64% 0.00 mm 346.30 W/m2
16:24 33.0 °C 25.0 °C 1009.8 hPa NE 13 km/h 16 km/h 63% 0.00 mm 341.78 W/m2
16:29 33.0 °C 25.0 °C 1009.8 hPa NNE 11 km/h 16 km/h 63% 0.00 mm 101.68 W/m2
16:34 32.0 °C 24.0 °C 1010.2 hPa NE 11 km/h 16 km/h 63% 0.00 mm 285.14 W/m2
16:39 32.0 °C 25.0 °C 1009.8 hPa WSW 9 km/h 12 km/h 63% 0.00 mm 299.18 W/m2
16:44 32.0 °C 24.0 °C 1010.2 hPa NNE 15 km/h 20 km/h 63% 0.00 mm 212.64 W/m2
16:49 32.0 °C 24.0 °C 1010.2 hPa NNE 18 km/h 20 km/h 64% 0.00 mm 264.44 W/m2
16:54 32.0 °C 24.0 °C 1009.8 hPa ENE 9 km/h 12 km/h 63% 0.00 mm 258.49 W/m2
16:59 33.0 °C 24.0 °C 1010.2 hPa East 17 km/h 24 km/h 62% 0.00 mm 245.96 W/m2
17:04 33.0 °C 24.0 °C 1010.2 hPa East 23 km/h 28 km/h 63% 0.00 mm 241.39 W/m2
17:09 32.0 °C 24.0 °C 1010.2 hPa East 10 km/h 16 km/h 63% 0.00 mm 118.69 W/m2
17:14 32.0 °C 24.0 °C 1010.2 hPa NE 18 km/h 24 km/h 64% 0.00 mm 58.45 W/m2
17:19 32.0 °C 24.0 °C 1010.2 hPa NNE 20 km/h 24 km/h 65% 0.00 mm 47.09 W/m2
17:24 31.0 °C 24.0 °C 1010.2 hPa North 13 km/h 20 km/h 65% 0.00 mm 43.35 W/m2
17:29 31.0 °C 24.0 °C 1010.2 hPa NNE 17 km/h 20 km/h 65% 0.00 mm 36.05 W/m2
17:34 31.0 °C 24.0 °C 1010.2 hPa NNE 18 km/h 28 km/h 66% 0.00 mm 31.73 W/m2
17:39 31.0 °C 24.0 °C 1010.5 hPa NNE 12 km/h 16 km/h 66% 0.00 mm 29.28 W/m2
17:44 31.0 °C 24.0 °C 1010.2 hPa NNE 23 km/h 28 km/h 66% 0.00 mm 26.15 W/m2
17:49 31.0 °C 24.0 °C 1010.5 hPa NNE 18 km/h 24 km/h 66% 0.00 mm 21.13 W/m2
17:54 31.0 °C 24.0 °C 1010.5 hPa NNE 17 km/h 24 km/h 66% 0.00 mm 16.46 W/m2
17:59 31.0 °C 24.0 °C 1010.5 hPa ENE 12 km/h 16 km/h 67% 0.00 mm 10.25 W/m2
18:00 30.0 °C 24.0 °C 1010.5 hPa NNE 13 km/h 16 km/h 67% 0.00 mm 5.81 W/m2
18:14 30.0 °C 24.0 °C 1010.5 hPa ENE 5 km/h 8 km/h 68% 0.00 mm 0.00 W/m2
18:19 30.0 °C 24.0 °C 1010.5 hPa NNE 17 km/h 20 km/h 68% 0.00 mm 0.00 W/m2
18:24 30.0 °C 24.0 °C 1010.5 hPa NE 10 km/h 12 km/h 68% 0.00 mm 0.00 W/m2
18:29 30.0 °C 24.0 °C 1010.5 hPa NNE 16 km/h 20 km/h 68% 0.00 mm 0.00 W/m2
18:34 30.0 °C 24.0 °C 1010.5 hPa NNE 15 km/h 20 km/h 68% 0.00 mm 0.00 W/m2
18:39 30.0 °C 24.0 °C 1010.8 hPa NNE 13 km/h 20 km/h 68% 0.00 mm 0.00 W/m2
18:44 30.0 °C 24.0 °C 1010.8 hPa NNE 10 km/h 12 km/h 69% 0.00 mm 0.00 W/m2
18:49 30.0 °C 24.0 °C 1010.8 hPa NNE 10 km/h 12 km/h 69% 0.00 mm 0.00 W/m2
18:54 30.0 °C 24.0 °C 1010.8 hPa NE 9 km/h 12 km/h 69% 0.00 mm 0.00 W/m2
18:59 30.0 °C 23.0 °C 1010.8 hPa NE 6 km/h 8 km/h 69% 0.00 mm 0.00 W/m2
19:04 30.0 °C 23.0 °C 1010.8 hPa ESE 4 km/h 8 km/h 69% 0.00 mm 0.00 W/m2
19:09 30.0 °C 23.0 °C 1011.2 hPa SSE 3 km/h 8 km/h 69% 0.00 mm 0.00 W/m2
19:14 30.0 °C 23.0 °C 1011.2 hPa SE 5 km/h 8 km/h 68% 0.00 mm 0.00 W/m2
19:19 30.0 °C 23.0 °C 1011.2 hPa ESE 6 km/h 8 km/h 68% 0.00 mm 0.00 W/m2
19:24 30.0 °C 23.0 °C 1011.2 hPa East 8 km/h 12 km/h 68% 0.00 mm 0.00 W/m2
19:29 30.0 °C 23.0 °C 1011.2 hPa SE 10 km/h 12 km/h 68% 0.00 mm 0.00 W/m2
19:34 29.0 °C 23.0 °C 1011.2 hPa ESE 5 km/h 12 km/h 69% 0.00 mm 0.00 W/m2
19:39 29.0 °C 23.0 °C 1011.5 hPa ESE 6 km/h 12 km/h 69% 0.00 mm 0.00 W/m2
19:44 29.0 °C 23.0 °C 1011.5 hPa ESE 8 km/h 12 km/h 69% 0.00 mm 0.00 W/m2
19:49 29.0 °C 23.0 °C 1011.9 hPa SE 5 km/h 8 km/h 69% 0.00 mm 0.00 W/m2
19:54 29.0 °C 23.0 °C 1011.9 hPa ESE 5 km/h 8 km/h 70% 0.00 mm 0.00 W/m2
19:59 29.0 °C 23.0 °C 1011.5 hPa ESE 5 km/h 8 km/h 70% 0.00 mm 0.00 W/m2
20:04 29.0 °C 23.0 °C 1011.9 hPa SE 5 km/h 8 km/h 70% 0.00 mm 0.00 W/m2
20:09 29.0 °C 23.0 °C 1011.9 hPa ESE 6 km/h 8 km/h 70% 0.00 mm 0.00 W/m2
20:14 29.0 °C 23.0 °C 1011.9 hPa East 5 km/h 8 km/h 70% 0.00 mm 0.00 W/m2
20:19 29.0 °C 23.0 °C 1012.2 hPa SE 3 km/h 4 km/h 70% 0.00 mm 0.00 W/m2
20:24 29.0 °C 23.0 °C 1012.2 hPa ESE 2 km/h 4 km/h 70% 0.00 mm 0.00 W/m2
20:29 29.0 °C 23.0 °C 1012.2 hPa Calm     70% 0.00 mm 0.00 W/m2
20:34 29.0 °C 23.0 °C 1012.2 hPa NNE 2 km/h 4 km/h 69% 0.00 mm 0.00 W/m2
20:39 29.0 °C 23.0 °C 1012.2 hPa North 3 km/h 4 km/h 70% 0.00 mm 0.00 W/m2
20:44 29.0 °C 23.0 °C 1012.2 hPa NNE 5 km/h 8 km/h 70% 0.00 mm 0.00 W/m2
20:49 29.0 °C 23.0 °C 1012.5 hPa Calm   4 km/h 70% 0.00 mm 0.00 W/m2
20:54 29.0 °C 23.0 °C 1012.5 hPa Calm     71% 0.00 mm 0.00 W/m2
20:59 29.0 °C 23.0 °C 1012.5 hPa ESE 1 km/h 4 km/h 70% 0.00 mm 0.00 W/m2
21:04 29.0 °C 23.0 °C 1012.2 hPa ESE 6 km/h 8 km/h 70% 0.00 mm 0.00 W/m2
21:09 29.0 °C 23.0 °C 1012.5 hPa ESE 8 km/h 12 km/h 71% 0.00 mm 0.00 W/m2
21:14 29.0 °C 23.0 °C 1012.5 hPa SE 6 km/h 8 km/h 71% 0.00 mm 0.00 W/m2
21:19 29.0 °C 23.0 °C 1012.5 hPa SE 9 km/h 12 km/h 71% 0.00 mm 0.00 W/m2
21:24 29.0 °C 23.0 °C 1012.5 hPa SE 5 km/h 8 km/h 71% 0.00 mm 0.00 W/m2
21:29 29.0 °C 23.0 °C 1012.9 hPa SE 6 km/h 8 km/h 71% 0.00 mm 0.00 W/m2
21:34 29.0 °C 23.0 °C 1012.9 hPa ESE 8 km/h 12 km/h 72% 0.00 mm 0.00 W/m2
21:39 29.0 °C 23.0 °C 1012.9 hPa ESE 5 km/h 8 km/h 72% 0.00 mm 0.00 W/m2
21:44 29.0 °C 23.0 °C 1012.9 hPa SE 6 km/h 8 km/h 72% 0.00 mm 0.00 W/m2
21:49 29.0 °C 23.0 °C 1012.9 hPa ESE 10 km/h 12 km/h 72% 0.00 mm 0.00 W/m2
21:54 29.0 °C 23.0 °C 1012.9 hPa SE 8 km/h 8 km/h 72% 0.00 mm 0.00 W/m2
21:59 29.0 °C 23.0 °C 1012.5 hPa ESE 8 km/h 8 km/h 72% 0.00 mm 0.00 W/m2
22:04 29.0 °C 23.0 °C 1012.9 hPa ESE 10 km/h 12 km/h 72% 0.00 mm 0.00 W/m2
22:09 29.0 °C 23.0 °C 1012.9 hPa ESE 5 km/h 8 km/h 72% 0.00 mm 0.00 W/m2
22:14 29.0 °C 23.0 °C 1012.9 hPa SSE 3 km/h 4 km/h 72% 0.00 mm 0.00 W/m2
22:19 29.0 °C 24.0 °C 1012.9 hPa SE 10 km/h 12 km/h 73% 0.00 mm 0.00 W/m2
22:24 29.0 °C 23.0 °C 1012.9 hPa SE 5 km/h 8 km/h 73% 0.00 mm 0.00 W/m2
22:29 29.0 °C 23.0 °C 1012.9 hPa SE 5 km/h 8 km/h 72% 0.00 mm 0.00 W/m2
22:34 29.0 °C 23.0 °C 1012.9 hPa SE 5 km/h 8 km/h 73% 0.00 mm 0.00 W/m2
22:39 29.0 °C 23.0 °C 1012.9 hPa SE 10 km/h 12 km/h 73% 0.00 mm 0.00 W/m2
22:44 29.0 °C 23.0 °C 1012.9 hPa SE 6 km/h 16 km/h 73% 0.00 mm 0.00 W/m2
22:49 29.0 °C 24.0 °C 1012.9 hPa ESE 10 km/h 16 km/h 74% 0.00 mm 0.00 W/m2
22:54 29.0 °C 24.0 °C 1012.5 hPa ESE 8 km/h 12 km/h 74% 0.00 mm 0.00 W/m2
22:59 29.0 °C 23.0 °C 1012.5 hPa ESE 10 km/h 16 km/h 73% 0.00 mm 0.00 W/m2
23:04 29.0 °C 23.0 °C 1012.9 hPa ESE 7 km/h 12 km/h 73% 0.00 mm 0.00 W/m2
23:09 29.0 °C 23.0 °C 1012.5 hPa ESE 13 km/h 16 km/h 73% 0.00 mm 0.00 W/m2
23:14 29.0 °C 23.0 °C 1012.5 hPa SE 9 km/h 12 km/h 72% 0.00 mm 0.00 W/m2
23:19 29.0 °C 23.0 °C 1012.5 hPa ESE 10 km/h 12 km/h 72% 0.00 mm 0.00 W/m2
23:24 29.0 °C 23.0 °C 1012.5 hPa ESE 8 km/h 12 km/h 72% 0.00 mm 0.00 W/m2
23:29 28.0 °C 23.0 °C 1012.5 hPa ESE 9 km/h 16 km/h 72% 0.00 mm 0.00 W/m2
23:34 28.0 °C 23.0 °C 1012.5 hPa East 10 km/h 16 km/h 72% 0.00 mm 0.00 W/m2
23:39 28.0 °C 23.0 °C 1012.5 hPa ESE 12 km/h 16 km/h 72% 0.00 mm 0.00 W/m2
23:44 28.0 °C 23.0 °C 1012.5 hPa ESE 10 km/h 20 km/h 72% 0.00 mm 0.00 W/m2
23:49 28.0 °C 23.0 °C 1012.5 hPa ESE 15 km/h 24 km/h 72% 0.00 mm 0.00 W/m2
23:54 28.0 °C 23.0 °C 1012.5 hPa SE 12 km/h 16 km/h 72% 0.00 mm 0.00 W/m2
23:59 28.0 °C 23.0 °C 1012.2 hPa ESE 10 km/h 16 km/h 72% 0.00 mm 0.00 W/m2
PIMOHWEATHER Philippines
Compliments of Weather Underground - 2 mb